createdAt,value
2022-12-05T00:00:54.246Z,100957.88
2022-12-05T00:03:21.098Z,100956.75
2022-12-05T00:05:47.845Z,100953.41
2022-12-05T00:08:14.566Z,100958.44
2022-12-05T00:10:41.127Z,100954.63
2022-12-05T00:13:07.765Z,100955.06
2022-12-05T00:15:38.557Z,100954.09
2022-12-05T00:18:05.443Z,100960.28
2022-12-05T00:20:31.903Z,100958.31
2022-12-05T00:22:58.313Z,100953.94
2022-12-05T00:25:24.784Z,100957.63
2022-12-05T00:27:51.367Z,100964.66
2022-12-05T00:30:18.147Z,100956.34
2022-12-05T00:32:44.533Z,100922.09
2022-12-05T00:35:10.917Z,100961.84
2022-12-05T00:37:37.514Z,100963.94
2022-12-05T00:40:04.117Z,100963.53
2022-12-05T00:42:30.733Z,100967.91
2022-12-05T00:44:57.319Z,100971.41
2022-12-05T00:47:23.759Z,100966.19
2022-12-05T00:49:50.194Z,100964.09
2022-12-05T00:52:16.761Z,100967.75
2022-12-05T00:54:43.490Z,100964.66
2022-12-05T00:57:09.968Z,100961.84
2022-12-05T00:59:36.347Z,100964.09
2022-12-05T01:02:04.591Z,100965.19
2022-12-05T01:04:31.185Z,100965.47
2022-12-05T01:06:58.181Z,100966.03
2022-12-05T01:09:25.102Z,100970.56
2022-12-05T01:11:51.918Z,100966.88
2022-12-05T01:14:19.452Z,100962.81
2022-12-05T01:16:46.786Z,100966.06
2022-12-05T01:19:16.587Z,100964.66
2022-12-05T01:21:43.415Z,100967.34
2022-12-05T01:24:10.895Z,100968.03
2022-12-05T01:26:37.553Z,100969.41
2022-12-05T01:29:04.552Z,100978.44
2022-12-05T01:31:33.011Z,100978.16
2022-12-05T01:34:00.929Z,100975.09
2022-12-05T01:36:28.153Z,100982.25
2022-12-05T01:38:55.053Z,100982.13
2022-12-05T01:41:25.094Z,100983.38
2022-12-05T01:44:04.623Z,100993.38
2022-12-05T01:46:35.648Z,100990.28
2022-12-05T01:49:08.088Z,100993.50
2022-12-05T01:51:36.368Z,100990.28
2022-12-05T01:54:04.796Z,100997.44
2022-12-05T01:59:21.491Z,100995.50
2022-12-05T02:02:11.505Z,100995.94
2022-12-05T02:04:50.090Z,100993.69
2022-12-05T02:07:21.901Z,101002.97
2022-12-05T02:09:51.566Z,101002.69
2022-12-05T02:12:22.495Z,101002.84
2022-12-05T02:14:51.896Z,100997.91
2022-12-05T02:17:40.743Z,100998.19
2022-12-05T02:21:18.296Z,101001.84
2022-12-05T02:23:30.349Z,101001.72
2022-12-05T02:36:14.523Z,101008.81
2022-12-05T02:39:40.443Z,101000.97
2022-12-05T02:44:08.401Z,101004.88
2022-12-05T02:59:57.425Z,101012.88
2022-12-05T03:03:05.721Z,101007.00
2022-12-05T03:17:42.930Z,101014.75
2022-12-05T03:20:19.780Z,101024.19
2022-12-05T03:23:09.104Z,101025.19
2022-12-05T03:34:20.486Z,101018.09
2022-12-05T03:37:34.245Z,101026.44
2022-12-05T03:52:05.913Z,101036.38
2022-12-05T03:55:02.037Z,101034.41
2022-12-05T03:57:37.095Z,101035.50
2022-12-05T04:00:19.549Z,101034.66
2022-12-05T04:02:49.691Z,101036.50
2022-12-05T04:05:36.439Z,101041.03
2022-12-05T04:08:27.635Z,101038.88
2022-12-05T04:11:01.555Z,101042.97
2022-12-05T04:13:40.766Z,101045.94
2022-12-05T04:16:29.181Z,101050.72
2022-12-05T04:19:00.454Z,101048.19
2022-12-05T04:21:39.051Z,101043.97
2022-12-05T04:24:44.650Z,101055.78
2022-12-05T04:27:11.556Z,101052.09
2022-12-05T04:29:56.960Z,101058.47
2022-12-05T04:44:46.085Z,101068.59
2022-12-05T04:48:22.123Z,101064.50
2022-12-05T07:07:19.342Z,101131.72
2022-12-05T07:09:46.008Z,101131.16
2022-12-05T07:12:13.500Z,101135.00
2022-12-05T07:14:47.464Z,101137.47
2022-12-05T07:17:14.895Z,101139.44
2022-12-05T07:19:43.048Z,101143.16
2022-12-05T07:25:46.981Z,101141.06
2022-12-05T07:28:13.467Z,101148.16
2022-12-05T07:30:39.983Z,101147.47
2022-12-05T07:33:06.461Z,101155.00
2022-12-05T07:35:33.171Z,101158.03
2022-12-05T07:37:59.629Z,101156.44
2022-12-05T07:40:26.131Z,101155.66
2022-12-05T07:42:53.504Z,101158.44
2022-12-05T07:45:23.028Z,101164.84
2022-12-05T07:47:49.672Z,101167.72
2022-12-05T07:50:16.245Z,101169.53
2022-12-05T07:52:42.833Z,101172.31
2022-12-05T07:55:09.436Z,101168.56
2022-12-05T07:57:35.921Z,101169.41
2022-12-05T08:00:02.643Z,101168.28
2022-12-05T08:02:29.157Z,101167.47
2022-12-05T08:04:57.079Z,101174.19
2022-12-05T08:07:23.636Z,101175.16
2022-12-05T08:09:50.146Z,101177.34
2022-12-05T08:12:16.683Z,101171.75
2022-12-05T08:14:43.260Z,101184.94
2022-12-05T08:17:09.758Z,101187.63
2022-12-05T08:19:36.458Z,101197.66
2022-12-05T08:22:02.955Z,101186.06
2022-12-05T08:24:29.540Z,101194.78
2022-12-05T08:26:56.112Z,101192.91
2022-12-05T08:29:22.706Z,101195.59
2022-12-05T08:31:50.768Z,101202.22
2022-12-05T08:34:18.117Z,101203.78
2022-12-05T08:36:45.165Z,101208.50
2022-12-05T08:39:15.062Z,101204.38
2022-12-05T08:41:42.302Z,101204.38
2022-12-05T08:44:10.447Z,101177.50
2022-12-05T08:46:37.855Z,101212.19
2022-12-05T08:49:05.304Z,101209.44
2022-12-05T08:51:32.033Z,101215.72
2022-12-05T08:53:58.746Z,101212.84
2022-12-05T08:56:27.807Z,101214.88
2022-12-05T09:02:37.413Z,101222.66
2022-12-05T09:05:27.051Z,101219.22
2022-12-05T09:08:13.544Z,101216.69
2022-12-05T09:11:04.681Z,101218.34
2022-12-05T09:13:36.898Z,101215.84
2022-12-05T09:16:08.621Z,101221.91
2022-12-05T09:18:38.707Z,101214.41
2022-12-05T09:21:42.237Z,101219.69
2022-12-05T09:24:25.833Z,101227.19
2022-12-05T09:27:04.802Z,101230.13
2022-12-05T09:29:55.539Z,101234.97
2022-12-05T09:32:50.477Z,101241.72
2022-12-05T09:35:20.508Z,101236.75
2022-12-05T09:38:03.072Z,101242.66
2022-12-05T09:40:45.717Z,101241.28
2022-12-05T09:43:46.368Z,101237.63
2022-12-05T09:46:30.329Z,101230.31
2022-12-05T09:49:23.186Z,101240.22
2022-12-05T09:52:24.464Z,101237.22
2022-12-05T09:54:52.019Z,101233.75
2022-12-05T09:57:33.828Z,101238.94
2022-12-05T10:00:01.665Z,101241.94
2022-12-05T10:02:32.615Z,101245.22
2022-12-05T10:05:03.816Z,101246.16
2022-12-05T10:07:49.537Z,101242.72
2022-12-05T10:10:35.047Z,101245.03
2022-12-05T10:13:01.512Z,101248.81
2022-12-05T10:15:27.969Z,101244.31
2022-12-05T10:18:14.747Z,101248.50
2022-12-05T10:21:02.022Z,101244.00
2022-12-05T10:26:17.845Z,101239.25
2022-12-05T10:29:00.812Z,101242.72
2022-12-05T10:31:32.220Z,101204.34
2022-12-05T10:34:11.435Z,101242.59
2022-12-05T10:36:37.816Z,101242.44
2022-12-05T10:39:09.896Z,101233.03
2022-12-05T10:41:37.800Z,101236.59
2022-12-05T10:44:05.043Z,101239.25
2022-12-05T10:46:31.846Z,101235.31
2022-12-05T10:48:59.334Z,101242.59
2022-12-05T10:51:28.470Z,101235.31
2022-12-05T10:53:57.934Z,101231.38
2022-12-05T10:56:42.831Z,101245.47
2022-12-05T10:59:11.504Z,101243.50
2022-12-05T11:01:43.486Z,101248.69
2022-12-05T11:04:19.358Z,101242.34
2022-12-05T11:06:50.815Z,101243.47
2022-12-05T11:09:19.385Z,101250.50
2022-12-05T11:12:01.488Z,101240.38
2022-12-05T11:14:29.862Z,101239.66
2022-12-05T11:16:58.466Z,101241.72
2022-12-05T11:19:35.835Z,101244.25
2022-12-05T11:22:03.388Z,101239.16
2022-12-05T11:24:31.397Z,101240.75
2022-12-05T11:26:59.525Z,101234.69
2022-12-05T11:29:36.540Z,101239.44
2022-12-05T11:32:04.568Z,101231.09
2022-12-05T11:34:43.229Z,101244.38
2022-12-05T11:37:13.386Z,101230.69
2022-12-05T11:39:40.182Z,101240.81
2022-12-05T11:42:19.435Z,101227.59
2022-12-05T11:44:45.981Z,101236.34
2022-12-05T11:47:37.372Z,101230.81
2022-12-05T11:50:14.898Z,101232.69
2022-12-05T11:52:59.337Z,101225.22
2022-12-05T11:55:25.800Z,101232.69
2022-12-05T11:57:52.838Z,101221.84
2022-12-05T12:00:22.340Z,101231.16
2022-12-05T12:03:09.357Z,101222.25
2022-12-05T12:06:00.872Z,101221.38
2022-12-05T12:08:34.949Z,101221.97
2022-12-05T12:11:28.294Z,101220.94
2022-12-05T12:14:19.697Z,101214.16
2022-12-05T12:16:52.876Z,101218.56
2022-12-05T12:19:26.862Z,101220.53
2022-12-05T12:21:59.711Z,101222.06
2022-12-05T12:24:58.931Z,101218.97
2022-12-05T12:27:47.143Z,101225.88
2022-12-05T12:30:21.377Z,101221.25
2022-12-05T12:33:06.612Z,101225.63
2022-12-05T12:35:53.940Z,101217.31
2022-12-05T12:38:20.466Z,101222.41
2022-12-05T12:40:51.699Z,101217.63
2022-12-05T12:46:32.603Z,101214.09
2022-12-05T12:49:31.844Z,101215.38
2022-12-05T12:52:03.142Z,101213.69
2022-12-05T12:55:13.166Z,101180.06
2022-12-05T12:57:46.972Z,101213.69
2022-12-05T13:00:22.713Z,101213.41
2022-12-05T13:02:52.025Z,101213.41
2022-12-05T13:05:38.188Z,101222.84
2022-12-05T13:08:25.141Z,101213.94
2022-12-05T13:10:52.427Z,101222.97
2022-12-05T13:13:25.091Z,101220.00
2022-12-05T13:15:52.724Z,101210.00
2022-12-05T13:18:23.600Z,101217.31
2022-12-05T13:20:52.047Z,101212.94
2022-12-05T13:23:21.540Z,101212.22
2022-12-05T13:25:49.034Z,101218.16
2022-12-05T13:28:26.175Z,101215.03
2022-12-05T13:31:02.309Z,101226.13
2022-12-05T13:33:32.130Z,101218.91
2022-12-05T13:36:25.544Z,101226.13
2022-12-05T13:39:18.866Z,101227.66
2022-12-05T13:42:06.538Z,101227.66
2022-12-05T13:44:37.954Z,101230.06
2022-12-05T13:47:07.490Z,101234.72
2022-12-05T13:49:43.716Z,101237.53
2022-12-05T13:52:15.789Z,101237.78
2022-12-05T13:54:44.867Z,101232.44
2022-12-05T13:57:31.186Z,101234.56
2022-12-05T14:00:00.364Z,101236.13
2022-12-05T14:02:51.212Z,101246.00
2022-12-05T14:05:20.808Z,101241.06
2022-12-05T14:07:56.416Z,101243.59
2022-12-05T14:10:28.482Z,101246.81
2022-12-05T14:12:56.369Z,101246.13
2022-12-05T14:15:25.956Z,101247.06
2022-12-05T14:18:11.337Z,101245.13
2022-12-05T14:20:38.012Z,101237.19
2022-12-05T14:23:16.570Z,101243.50
2022-12-05T14:25:57.309Z,101249.59
2022-12-05T14:28:45.703Z,101246.38
2022-12-05T14:31:15.486Z,101250.16
2022-12-05T14:33:42.213Z,101251.81
2022-12-05T14:36:15.602Z,101245.28
2022-12-05T14:38:42.541Z,101243.34
2022-12-05T14:41:16.968Z,101240.13
2022-12-05T14:43:43.864Z,101240.97
2022-12-05T14:46:21.697Z,101234.66
2022-12-05T14:48:49.134Z,101239.53
2022-12-05T14:51:39.328Z,101245.50
2022-12-05T14:54:12.509Z,101248.06
2022-12-05T14:56:41.506Z,101245.94
2022-12-05T14:59:26.607Z,101248.16
2022-12-05T15:01:58.005Z,101248.69
2022-12-05T15:04:24.680Z,101240.66
2022-12-05T15:06:51.435Z,101239.13
2022-12-05T15:09:37.326Z,101248.97
2022-12-05T15:12:09.619Z,101247.97
2022-12-05T15:14:39.766Z,101257.00
2022-12-05T15:17:09.187Z,101218.13
2022-12-05T15:19:45.618Z,101256.00
2022-12-05T15:22:16.670Z,101268.94
2022-12-05T15:24:43.245Z,101266.16
2022-12-05T15:27:13.594Z,101272.31
2022-12-05T15:29:41.141Z,101274.56
2022-12-05T15:32:10.663Z,101271.44
2022-12-05T15:34:56.207Z,101280.69
2022-12-05T15:37:47.062Z,101280.44
2022-12-05T15:40:20.908Z,101278.38
2022-12-05T15:42:50.272Z,101280.19
2022-12-05T15:45:16.640Z,101281.44
2022-12-05T15:47:47.997Z,101279.44
2022-12-05T15:50:15.817Z,101286.91
2022-12-05T15:52:55.036Z,101280.97
2022-12-05T15:55:25.758Z,101288.00
2022-12-05T15:58:00.878Z,101288.47
2022-12-05T16:00:28.903Z,101292.31
2022-12-05T16:03:05.079Z,101292.13
2022-12-05T16:05:35.382Z,101294.09
2022-12-05T16:08:03.371Z,101294.72
2022-12-05T16:10:30.623Z,101298.78
2022-12-05T16:13:02.485Z,101303.44
2022-12-05T16:15:29.048Z,101295.91
2022-12-05T16:17:56.411Z,101266.59
2022-12-05T16:20:24.918Z,101302.56
2022-12-05T16:22:53.313Z,101306.16
2022-12-05T16:25:27.534Z,101307.50
2022-12-05T16:28:14.617Z,101308.63
2022-12-05T16:30:41.077Z,101305.22
2022-12-05T16:33:25.702Z,101315.53
2022-12-05T16:35:52.428Z,101319.31
2022-12-05T16:38:31.863Z,101317.34
2022-12-05T16:40:59.810Z,101322.84
2022-12-05T16:43:32.613Z,101325.78
2022-12-05T16:46:07.914Z,101333.41
2022-12-05T16:48:34.519Z,101323.56
2022-12-05T16:51:12.863Z,101334.63
2022-12-05T16:53:40.306Z,101331.50
2022-12-05T16:56:07.924Z,101325.91
2022-12-05T16:58:35.256Z,101322.13
2022-12-05T17:01:03.320Z,101325.38
2022-12-05T17:03:35.494Z,101329.16
2022-12-05T17:06:02.203Z,101327.47
2022-12-05T17:08:28.827Z,101334.19
2022-12-05T17:10:55.328Z,101331.16
2022-12-05T17:13:21.987Z,101329.28
2022-12-05T17:15:48.472Z,101336.50
2022-12-05T17:18:27.943Z,101334.81
2022-12-05T17:20:59.932Z,101338.84
2022-12-05T17:23:26.528Z,101336.06
2022-12-05T17:25:54.418Z,101336.47
2022-12-05T17:28:21.115Z,101341.41
2022-12-05T17:30:47.835Z,101337.47
2022-12-05T17:33:15.710Z,101341.81
2022-12-05T17:35:42.633Z,101336.47
2022-12-05T17:38:10.697Z,101341.53
2022-12-05T17:40:37.473Z,101346.56
2022-12-05T17:43:04.272Z,101343.69
2022-12-05T17:45:31.002Z,101336.06
2022-12-05T17:47:57.743Z,101335.69
2022-12-05T17:50:24.851Z,101349.78
2022-12-05T17:52:54.197Z,101352.16
2022-12-05T17:55:22.478Z,101359.19
2022-12-05T17:57:49.079Z,101346.31
2022-12-05T18:00:16.785Z,101353.59
2022-12-05T18:02:44.086Z,101346.56
2022-12-05T18:05:11.167Z,101351.81
2022-12-05T18:07:38.376Z,101344.88
2022-12-05T18:10:12.639Z,101346.72
2022-12-05T18:12:39.907Z,101345.97
2022-12-05T18:15:06.756Z,101343.66
2022-12-05T18:17:33.228Z,101347.53
2022-12-05T18:19:59.650Z,101352.88
2022-12-05T18:22:26.844Z,101352.88
2022-12-05T18:24:53.764Z,101353.78
2022-12-05T18:27:21.199Z,101354.88
2022-12-05T18:29:48.575Z,101354.38
2022-12-05T18:32:15.503Z,101353.53
2022-12-05T18:34:41.860Z,101361.41
2022-12-05T18:37:08.221Z,101359.72
2022-12-05T18:39:34.626Z,101364.44
2022-12-05T18:42:01.036Z,101369.44
2022-12-05T18:44:27.453Z,101367.84
2022-12-05T18:46:56.827Z,101375.38
2022-12-05T18:49:24.314Z,101378.53
2022-12-05T18:51:52.606Z,101386.53
2022-12-05T18:54:25.546Z,101382.06
2022-12-05T19:00:02.290Z,101381.47
2022-12-05T19:02:29.686Z,101383.66
2022-12-05T19:04:58.647Z,101384.16
2022-12-05T19:07:25.229Z,101379.75
2022-12-05T19:09:52.097Z,101387.53
2022-12-05T19:12:18.716Z,101378.16
2022-12-05T19:15:27.070Z,101379.72
2022-12-05T19:17:53.700Z,101383.16
2022-12-05T19:20:20.248Z,101378.41
2022-12-05T19:22:49.564Z,101381.66
2022-12-05T19:25:16.067Z,101375.13
2022-12-05T19:27:42.481Z,101376.72
2022-12-05T19:30:10.332Z,101382.69
2022-12-05T19:32:40.730Z,101383.38
2022-12-05T19:35:15.036Z,101384.72
2022-12-05T19:37:41.513Z,101387.78
2022-12-05T19:40:09.168Z,101395.06
2022-12-05T19:42:35.700Z,101397.22
2022-12-05T19:45:08.126Z,101396.66
2022-12-05T19:47:36.042Z,101404.31
2022-12-05T19:50:02.582Z,101396.53
2022-12-05T19:52:29.799Z,101405.53
2022-12-05T19:54:56.393Z,101387.31
2022-12-05T19:57:23.759Z,101409.50
2022-12-05T19:59:50.578Z,101405.00
2022-12-05T20:02:17.356Z,101406.00
2022-12-05T20:04:44.004Z,101393.97
2022-12-05T20:07:19.568Z,101395.78
2022-12-05T20:09:46.124Z,101386.94
2022-12-05T20:12:12.997Z,101390.44
2022-12-05T20:14:39.542Z,101388.13
2022-12-05T20:17:08.044Z,101388.75
2022-12-05T20:19:34.671Z,101391.19
2022-12-05T20:22:04.112Z,101397.22
2022-12-05T20:24:32.340Z,101392.13
2022-12-05T20:26:59.327Z,101393.25
2022-12-05T20:29:25.977Z,101390.56
2022-12-05T20:31:56.509Z,101382.91
2022-12-05T20:34:23.427Z,101389.97
2022-12-05T20:36:50.087Z,101387.66
2022-12-05T20:39:16.715Z,101395.31
2022-12-05T20:41:43.743Z,101387.19
2022-12-05T20:44:11.905Z,101388.50
2022-12-05T20:46:39.002Z,101389.97
2022-12-05T20:49:08.255Z,101389.84
2022-12-05T20:51:34.852Z,101391.44
2022-12-05T20:54:02.341Z,101387.19
2022-12-05T20:56:30.264Z,101395.78
2022-12-05T20:58:58.115Z,101394.84
2022-12-05T21:01:25.604Z,101315.56
2022-12-05T21:03:55.395Z,101392.75
2022-12-05T21:06:23.238Z,101396.41
2022-12-05T21:08:50.057Z,101391.25
2022-12-05T21:11:16.485Z,101387.91
2022-12-05T21:13:42.896Z,101386.06
2022-12-05T21:16:10.957Z,101391.66
2022-12-05T21:18:37.476Z,101387.66
2022-12-05T21:21:05.620Z,101390.19
2022-12-05T21:23:32.551Z,101381.47
2022-12-05T21:26:03.237Z,101384.00
2022-12-05T21:28:31.344Z,101376.72
2022-12-05T21:31:04.211Z,101381.97
2022-12-05T21:33:30.848Z,101376.63
2022-12-05T21:35:57.305Z,101379.53
2022-12-05T21:38:23.709Z,101372.34
2022-12-05T21:40:50.092Z,101371.03
2022-12-05T21:43:16.828Z,101375.03
2022-12-05T21:45:46.658Z,101381.06
2022-12-05T21:48:15.443Z,101378.03
2022-12-05T21:50:42.412Z,101377.78
2022-12-05T21:53:08.985Z,101374.88
2022-12-05T21:55:37.773Z,101381.31
2022-12-05T21:58:07.337Z,101380.09
2022-12-05T22:00:33.781Z,101370.97
2022-12-05T22:03:00.523Z,101381.53
2022-12-05T22:05:27.023Z,101379.72
2022-12-05T22:07:53.619Z,101382.78
2022-12-05T22:10:20.103Z,101383.63
2022-12-05T22:12:46.557Z,101395.41
2022-12-05T22:15:13.119Z,101388.75
2022-12-05T22:17:39.633Z,101387.97
2022-12-05T22:20:06.319Z,101385.78
2022-12-05T22:22:32.922Z,101386.84
2022-12-05T22:24:59.702Z,101385.28
2022-12-05T22:27:26.566Z,101392.34
2022-12-05T22:29:53.139Z,101384.94
2022-12-05T22:32:19.541Z,101387.03
2022-12-05T22:34:45.925Z,101389.69
2022-12-05T22:37:12.388Z,101385.06
2022-12-05T22:39:38.813Z,101383.13
2022-12-05T22:42:05.255Z,101373.38
2022-12-05T22:44:31.622Z,101370.94
2022-12-05T22:46:57.973Z,101378.22
2022-12-05T22:49:25.291Z,101378.13
2022-12-05T22:51:52.233Z,101371.84
2022-12-05T22:54:18.776Z,101374.63
2022-12-05T22:56:45.401Z,101380.44
2022-12-05T22:59:14.710Z,101378.03
2022-12-05T23:01:41.367Z,101372.69
2022-12-05T23:04:10.309Z,101372.69
2022-12-05T23:06:39.450Z,101365.38
2022-12-05T23:09:06.772Z,101370.28
2022-12-05T23:11:33.918Z,101369.16
2022-12-05T23:14:02.315Z,101368.91
2022-12-05T23:16:30.852Z,101358.72
2022-12-05T23:18:59.192Z,101362.25
2022-12-05T23:21:33.488Z,101359.59
2022-12-05T23:24:00.996Z,101358.34
2022-12-05T23:26:28.670Z,101360.91
2022-12-05T23:28:55.042Z,101359.06
2022-12-05T23:31:21.630Z,101362.00
2022-12-05T23:33:51.330Z,101352.16
2022-12-05T23:36:18.574Z,101348.13
2022-12-05T23:38:44.984Z,101355.88
2022-12-05T23:41:16.284Z,101348.34
2022-12-05T23:43:43.138Z,101341.28
2022-12-05T23:46:10.131Z,101344.09
2022-12-05T23:48:36.750Z,101335.94
2022-12-05T23:51:04.744Z,101338.25
2022-12-05T23:53:32.111Z,101336.56
2022-12-05T23:56:02.385Z,101338.50
2022-12-05T23:58:29.850Z,101336.44
